Mather, CA

8:26 AM PDT on August 28, 2014 (GMT -0700)
McClellan | Change Station
CLOSE
Current Station
Airport
Location: Sacramento / Mc Clellan,
Elevation: 75 ft
Nearby Weather Stations

Elev 75 ft 38.67 °N, 121.40 °W | Updated 12 days ago

Clear
Clear
86 °F
Feels Like 86 °F
N
8
Wind Variable Wind from WSW
Gusts 12 mph

Today
High -- | Low -- °F
--% Chance of Precip.
Yesterday
High -- | Low -- °F
Precip. -- in
6:26 AM 7:34 PM
Waxing Crescent, 8% visible
Pressure 29.97 in
Visibility 10.0 miles
Clouds Clear
Dew Point 48 °F
Humidity 26%
Rainfall 0.00 in
Snow Depth Not available.
UV 0 out of 12
Pollen 9.10 out of 12
Ozone Unhealthy for Sensitive Groups
Flu Activity Not available.
METAR KMCC 161305Z AUTO 15006KT 10SM CLR 17/10 A2997 RMK AO2

More Conditions Fewer Conditions

Pressure 29.97 in
Visibility 10.0 miles
Clouds Clear
Dew Point 48 °F
Humidity 26%
Rainfall 0.00 in
Snow Depth Not available.
UV 0 out of 12
Pollen 9.10 out of 12
Ozone Unhealthy for Sensitive Groups
Flu Activity Not available.
METAR KMCC 161305Z AUTO 15006KT 10SM CLR 17/10 A2997 RMK AO2

More Conditions Fewer Conditions

10-Day Weather Forecast

Almanac

Astronomy

Aug. 28, 2014 Rise Set
Actual Time 6:26 AM PDT 7:34 PM PDT
Civil Twilight 5:58 AM PDT 8:01 PM PDT
Nautical Twilight 5:26 AM PDT 8:33 PM PDT
Astronomical Twilight 4:52 AM PDT 9:07 PM PDT
Moon 9:19 AM PDT 9:05 PM PDT
Length of Visible Light 14h 02m
Length of Day
13h 08m
Tomorrow will be 2m 18s shorter.
Waxing Crescent, 8% of the Moon is Illuminated
Today
Waxing Crescent
Sep 2
First Quarter
Sep 8
Full
Sep 15
Last Quarter
Sep 24
New

Today's Extremes

State Highs State Lows

Community

WunderPhotos

Upload Photos

1,747,984 photos uploaded!

Nearby

Air Quality

  Air Quality AQ Index Pollutant
Yesterday Unhealthy for Sensitive Groups
OZONE
Current Unhealthy for Sensitive Groups
OZONE
Thursday Moderate
OZONE
Friday Moderate
OZONE
Saturday Moderate
OZONE

Snow Depth

Station Depth Elevation
Leavitt Lake 1 in 9400 ft
Sonora Pass 0 in 8800 ft
Leavitt Meadows 1 in 7200 ft
Summit Meadow 2 in 9122 ft
Poison Flat 0 in 7900 ft

Earthquake Activity

City Distance Mag. Time & Date
Soledad, California 116 miles 2.6 12:15 PM PDT
2014-08-26
Minimum magnitude displayed is 2.5.

Coastal Water Temperatures

Place Temperature
No Stations Reporting

Nearby Weather Stations